Terminal Aerodrome Forecast
Issued by NWS

Home | Current Version | Previous Version | Text Only | Print | Product List | Glossary Off
Versions: 1 2 3 4 5 6 7 8 9 10 11 12 13 14 15 16 17 18

000
FTUS45 KGGW 191123
TAFGDV
TAF
KGDV 191123Z 1912/2012 05007KT P6SM BKN200
     FM191700 15005KT P6SM BKN150
     FM200200 26004KT P6SM OVC090
     FM200600 27005KT P6SM VCSH OVC090
     FM201100 27008KT P6SM BKN045=

USA.gov is the U.S. government's official web portal to all federal, state and local government web resources and services.